createdAt,value
2022-11-17T00:01:48.880Z,99743.72
2022-11-17T00:06:51.167Z,99694.63
2022-11-17T00:12:12.037Z,99719.81
2022-11-17T00:17:14.509Z,99722.13
2022-11-17T00:22:16.693Z,99731.00
2022-11-17T00:27:18.993Z,99726.88
2022-11-17T00:32:39.531Z,99695.72
2022-11-17T00:38:04.570Z,99734.22
2022-11-17T00:43:06.880Z,99705.66
2022-11-17T00:48:09.268Z,99736.41
2022-11-17T00:53:11.477Z,99739.44
2022-11-17T00:58:13.714Z,99731.81
2022-11-17T01:03:15.970Z,99721.81
2022-11-17T01:08:18.182Z,99722.59
2022-11-17T01:13:20.430Z,99679.03
2022-11-17T01:18:22.647Z,99645.22
2022-11-17T01:23:24.841Z,99716.28
2022-11-17T01:28:27.233Z,99715.41
2022-11-17T01:33:29.996Z,99715.78
2022-11-17T01:38:32.790Z,99684.72
2022-11-17T01:43:40.138Z,99717.91
2022-11-17T01:48:44.927Z,99702.22
2022-11-17T01:53:50.855Z,99656.09
2022-11-17T01:59:03.173Z,99678.03
2022-11-17T02:04:05.722Z,99725.81
2022-11-17T02:09:08.541Z,99673.44
2022-11-17T02:14:11.092Z,99725.19
2022-11-17T02:19:16.972Z,99721.91
2022-11-17T02:24:47.952Z,99693.53
2022-11-17T02:30:04.349Z,99723.81
2022-11-17T02:35:25.329Z,99688.94
2022-11-17T02:40:35.119Z,99695.28
2022-11-17T02:45:46.078Z,99640.91
2022-11-17T02:50:50.162Z,99698.66
2022-11-17T02:55:53.937Z,99693.16
2022-11-17T03:01:15.928Z,99675.81
2022-11-17T03:06:36.535Z,99690.31
2022-11-17T03:12:14.189Z,99661.81
2022-11-17T03:17:20.085Z,99592.66
2022-11-17T03:22:34.204Z,99656.88
2022-11-17T03:27:39.636Z,99654.44
2022-11-17T03:32:47.292Z,99610.00
2022-11-17T03:37:56.631Z,99634.41
2022-11-17T03:43:05.941Z,99679.16
2022-11-17T03:48:34.465Z,99680.81
2022-11-17T03:53:37.317Z,99661.19
2022-11-17T03:58:47.074Z,99643.31
2022-11-17T04:03:49.465Z,99610.53
2022-11-17T04:08:51.804Z,99623.56
2022-11-17T04:14:12.494Z,99651.34
2022-11-17T04:19:14.705Z,99646.03
2022-11-17T04:24:16.907Z,99649.13
2022-11-17T04:29:19.438Z,99621.97
2022-11-17T04:34:21.625Z,99606.09
2022-11-17T04:39:23.881Z,99601.13
2022-11-17T04:44:28.708Z,99650.47
2022-11-17T04:49:33.092Z,99645.94
2022-11-17T04:54:35.819Z,99600.22
2022-11-17T04:59:38.040Z,99584.59
2022-11-17T05:04:58.592Z,99583.97
2022-11-17T05:10:01.765Z,99611.16
2022-11-17T05:15:04.140Z,99613.41
2022-11-17T05:20:07.440Z,99574.50
2022-11-17T05:25:10.165Z,99635.31
2022-11-17T05:30:12.791Z,99622.75
2022-11-17T05:35:15.038Z,99595.78
2022-11-17T05:40:17.449Z,99649.97
2022-11-17T05:45:24.504Z,99640.69
2022-11-17T05:50:27.247Z,99582.81
2022-11-17T05:55:29.571Z,99612.06
2022-11-17T06:00:32.976Z,99644.66
2022-11-17T06:05:35.321Z,99659.28
2022-11-17T06:10:37.815Z,99631.06
2022-11-17T06:15:40.226Z,99592.69
2022-11-17T06:20:48.866Z,99602.56
2022-11-17T06:25:51.288Z,99626.03
2022-11-17T06:30:54.743Z,99636.69
2022-11-17T06:35:59.873Z,99644.00
2022-11-17T06:41:07.524Z,99652.28
2022-11-17T06:46:13.859Z,99586.25
2022-11-17T06:51:16.217Z,99627.22
2022-11-17T06:56:18.781Z,99619.09
2022-11-17T07:01:21.466Z,99626.25
2022-11-17T07:06:24.379Z,99641.84
2022-11-17T07:11:27.130Z,99610.44
2022-11-17T07:16:31.308Z,99627.16
2022-11-17T07:21:33.773Z,99587.38
2022-11-17T07:26:36.095Z,99567.41
2022-11-17T07:31:38.355Z,99616.53
2022-11-17T07:36:40.654Z,99579.94
2022-11-17T07:41:42.979Z,99587.44
2022-11-17T07:46:45.229Z,99528.88
2022-11-17T07:51:47.492Z,99574.03
2022-11-17T07:56:49.827Z,99560.72
2022-11-17T08:01:52.391Z,99575.63
2022-11-17T08:06:54.838Z,99561.38
2022-11-17T08:11:58.241Z,99538.34
2022-11-17T08:17:00.787Z,99577.91
2022-11-17T08:22:03.159Z,99587.06
2022-11-17T08:27:05.431Z,99584.97
2022-11-17T08:32:07.844Z,99602.00
2022-11-17T08:37:10.119Z,99567.00
2022-11-17T08:42:12.433Z,99629.72
2022-11-17T08:47:14.665Z,99584.16
2022-11-17T08:52:17.179Z,99553.91
2022-11-17T08:57:19.676Z,99579.59
2022-11-17T09:02:21.982Z,99577.50
2022-11-17T09:07:24.411Z,99590.41
2022-11-17T09:12:26.842Z,99581.94
2022-11-17T09:17:29.145Z,99625.94
2022-11-17T09:22:31.394Z,99589.22
2022-11-17T09:27:33.861Z,99612.69
2022-11-17T09:32:36.547Z,99590.00
2022-11-17T09:37:38.961Z,99548.03
2022-11-17T09:42:42.577Z,99589.06
2022-11-17T09:48:02.558Z,99596.91
2022-11-17T09:54:15.930Z,99557.50
2022-11-17T09:59:21.984Z,99563.25
2022-11-17T10:04:28.663Z,99577.91
2022-11-17T10:09:41.794Z,99586.78
2022-11-17T10:14:44.931Z,99561.38
2022-11-17T10:19:47.257Z,99556.94
2022-11-17T10:24:52.559Z,99569.00
2022-11-17T10:30:05.808Z,99588.69
2022-11-17T10:35:17.349Z,99572.22
2022-11-17T10:40:28.802Z,99560.25
2022-11-17T10:45:31.291Z,99566.72
2022-11-17T10:50:33.620Z,99544.66
2022-11-17T10:55:36.695Z,99557.53
2022-11-17T11:00:39.175Z,99556.78
2022-11-17T11:05:55.290Z,99565.22
2022-11-17T11:11:00.351Z,99565.38
2022-11-17T11:16:02.909Z,99540.09
2022-11-17T11:21:24.791Z,99546.00
2022-11-17T11:26:40.541Z,99515.78
2022-11-17T11:31:58.646Z,99535.69
2022-11-17T11:37:15.567Z,99538.78
2022-11-17T11:42:46.591Z,99539.00
2022-11-17T11:48:00.873Z,99536.50
2022-11-17T11:53:11.953Z,99523.06
2022-11-17T11:58:23.928Z,99528.63
2022-11-17T12:03:53.552Z,99489.72
2022-11-17T12:09:32.063Z,99499.38
2022-11-17T12:14:37.868Z,99498.13
2022-11-17T12:20:00.525Z,99519.91
2022-11-17T12:25:31.821Z,99522.41
2022-11-17T12:30:34.162Z,99524.09
2022-11-17T12:35:39.512Z,99491.72
2022-11-17T12:40:44.653Z,99521.44
2022-11-17T12:45:58.746Z,99518.69
2022-11-17T12:51:06.525Z,99516.50
2022-11-17T12:56:28.203Z,99517.53
2022-11-17T13:01:33.318Z,99509.31
2022-11-17T13:06:36.750Z,99485.09
2022-11-17T13:11:39.515Z,99507.63
2022-11-17T13:16:50.990Z,99534.75
2022-11-17T13:22:00.341Z,99520.19
2022-11-17T13:27:07.786Z,99515.78
2022-11-17T13:32:21.655Z,99519.88
2022-11-17T13:37:28.862Z,99526.91
2022-11-17T13:42:32.887Z,99519.66
2022-11-17T13:47:37.847Z,99541.78
2022-11-17T13:52:46.486Z,99531.09
2022-11-17T13:57:59.216Z,99530.50
2022-11-17T14:03:06.057Z,99527.25
2022-11-17T14:08:23.346Z,99527.88
2022-11-17T14:13:31.394Z,99543.44
2022-11-17T14:18:39.376Z,99524.91
2022-11-17T14:23:43.718Z,99524.69
2022-11-17T14:28:46.287Z,99537.13
2022-11-17T14:33:48.590Z,99508.28
2022-11-17T14:38:50.971Z,99543.13
2022-11-17T14:43:53.256Z,99545.06
2022-11-17T14:48:56.308Z,99552.06
2022-11-17T14:53:59.330Z,99528.00
2022-11-17T14:59:01.626Z,99556.59
2022-11-17T15:04:27.371Z,99560.91
2022-11-17T15:09:27.311Z,99561.38
2022-11-17T15:14:29.578Z,99546.28
2022-11-17T15:19:31.858Z,99555.66
2022-11-17T15:24:34.147Z,99580.28
2022-11-17T15:29:36.582Z,99550.91
2022-11-17T15:34:39.044Z,99546.03
2022-11-17T15:39:41.480Z,99563.72
2022-11-17T15:44:43.758Z,99541.06
2022-11-17T15:49:47.228Z,99528.56
2022-11-17T15:54:49.474Z,99526.84
2022-11-17T15:59:52.327Z,99572.34
2022-11-17T16:04:54.749Z,99543.28
2022-11-17T16:09:56.960Z,99573.25
2022-11-17T16:14:59.272Z,99549.34
2022-11-17T16:20:01.786Z,99597.03
2022-11-17T16:25:05.946Z,99598.72
2022-11-17T16:30:09.292Z,99606.72
2022-11-17T16:35:11.950Z,99612.72
2022-11-17T16:40:14.218Z,99605.16
2022-11-17T16:45:16.509Z,99590.06
2022-11-17T16:50:19.044Z,99597.25
2022-11-17T16:55:21.380Z,99603.41
2022-11-17T17:00:23.743Z,99633.69
2022-11-17T17:05:26.718Z,99621.78
2022-11-17T17:10:28.922Z,99620.41
2022-11-17T17:15:31.302Z,99630.16
2022-11-17T17:20:33.941Z,99631.44
2022-11-17T17:25:36.199Z,99634.41
2022-11-17T17:30:38.665Z,99645.13
2022-11-17T17:35:40.904Z,99628.03
2022-11-17T17:40:43.261Z,99662.06
2022-11-17T17:45:45.591Z,99651.06
2022-11-17T17:50:47.985Z,99642.66
2022-11-17T17:55:50.235Z,99649.41
2022-11-17T18:00:53.457Z,99633.22
2022-11-17T18:06:00.558Z,99638.38
2022-11-17T18:11:04.491Z,99669.97
2022-11-17T18:16:18.299Z,99665.88
2022-11-17T18:21:20.839Z,99664.13
2022-11-17T18:26:34.098Z,99685.00
2022-11-17T18:31:37.862Z,99686.78
2022-11-17T18:36:40.095Z,99644.97
2022-11-17T18:41:42.934Z,99675.75
2022-11-17T18:46:45.564Z,99681.59
2022-11-17T18:51:48.035Z,99697.22
2022-11-17T18:56:50.916Z,99707.41
2022-11-17T19:01:53.274Z,99703.41
2022-11-17T19:06:55.550Z,99684.94
2022-11-17T19:11:57.992Z,99707.06
2022-11-17T19:17:00.353Z,99691.63
2022-11-17T19:22:02.788Z,99677.72
2022-11-17T19:27:05.160Z,99663.31
2022-11-17T19:32:07.595Z,99691.03
2022-11-17T19:37:09.826Z,99691.03
2022-11-17T19:42:12.734Z,99674.91
2022-11-17T19:47:15.055Z,99678.88
2022-11-17T19:52:17.514Z,99678.88
2022-11-17T19:57:20.527Z,99696.03
2022-11-17T20:02:22.952Z,99677.78
2022-11-17T20:07:25.445Z,99698.38
2022-11-17T20:12:27.782Z,99662.13
2022-11-17T20:17:30.102Z,99684.88
2022-11-17T20:22:32.606Z,99713.69
2022-11-17T20:27:35.106Z,99684.44
2022-11-17T20:32:37.559Z,99707.66
2022-11-17T20:37:39.924Z,99687.75
2022-11-17T20:42:42.296Z,99700.03
2022-11-17T20:47:44.507Z,99663.84
2022-11-17T20:52:46.896Z,99703.09
2022-11-17T20:57:49.162Z,99659.47
2022-11-17T21:02:51.404Z,99677.06
2022-11-17T21:07:53.624Z,99683.56
2022-11-17T21:12:55.814Z,99703.41
2022-11-17T21:18:16.438Z,99716.06
2022-11-17T21:23:18.760Z,99678.75
2022-11-17T21:28:21.153Z,99709.09
2022-11-17T21:33:23.634Z,99700.03
2022-11-17T21:38:25.834Z,99702.88
2022-11-17T21:43:28.242Z,99674.94
2022-11-17T21:48:30.567Z,99661.03
2022-11-17T21:53:33.132Z,99677.09
2022-11-17T21:58:35.516Z,99669.75
2022-11-17T22:03:38.748Z,99728.28
2022-11-17T22:08:43.120Z,99712.84
2022-11-17T22:13:45.340Z,99650.16
2022-11-17T22:18:47.667Z,99661.03
2022-11-17T22:23:50.546Z,99721.47
2022-11-17T22:28:54.852Z,99727.06
2022-11-17T22:33:57.178Z,99682.06
2022-11-17T22:38:59.460Z,99670.16
2022-11-17T22:44:01.718Z,99705.94
2022-11-17T22:49:04.144Z,99688.13
2022-11-17T22:54:08.389Z,99714.66
2022-11-17T22:59:10.641Z,99695.91
2022-11-17T23:04:13.444Z,99648.13
2022-11-17T23:09:16.333Z,99673.22
2022-11-17T23:14:18.663Z,99682.41
2022-11-17T23:19:21.224Z,99613.28
2022-11-17T23:24:23.678Z,99655.28
2022-11-17T23:29:25.965Z,99658.56
2022-11-17T23:34:28.274Z,99622.06
2022-11-17T23:39:30.629Z,99639.47
2022-11-17T23:44:33.055Z,99705.56
2022-11-17T23:49:35.372Z,99670.53
2022-11-17T23:54:37.980Z,99688.41
2022-11-17T23:59:40.432Z,99640.34
